sensor_id;sensor_type;location;lat;lon;timestamp;temperature;humidity
15178;DHT22;7689;53.612;-2.416;2022-09-03T00:10:52;17.20;99.90
15178;DHT22;7689;53.612;-2.416;2022-09-03T00:13:32;17.20;99.90
15178;DHT22;7689;53.612;-2.416;2022-09-03T00:15:59;17.10;99.90
15178;DHT22;7689;53.612;-2.416;2022-09-03T00:18:30;17.20;99.90
15178;DHT22;7689;53.612;-2.416;2022-09-03T00:21:10;17.30;99.90
15178;DHT22;7689;53.612;-2.416;2022-09-03T00:23:41;17.20;99.90
15178;DHT22;7689;53.612;-2.416;2022-09-03T00:31:33;17.20;99.90
15178;DHT22;7689;53.612;-2.416;2022-09-03T00:34:09;17.30;99.90
15178;DHT22;7689;53.612;-2.416;2022-09-03T00:36:45;17.30;99.90
15178;DHT22;7689;53.612;-2.416;2022-09-03T00:39:16;17.30;99.90
15178;DHT22;7689;53.612;-2.416;2022-09-03T00:44:36;17.20;99.90
15178;DHT22;7689;53.612;-2.416;2022-09-03T00:52:48;17.20;99.90
15178;DHT22;7689;53.612;-2.416;2022-09-03T01:00:35;17.20;99.90
15178;DHT22;7689;53.612;-2.416;2022-09-03T01:03:09;17.20;99.90
15178;DHT22;7689;53.612;-2.416;2022-09-03T01:27:47;17.20;99.90
15178;DHT22;7689;53.612;-2.416;2022-09-03T01:30:18;17.20;99.90
15178;DHT22;7689;53.612;-2.416;2022-09-03T01:32:51;17.20;99.90
15178;DHT22;7689;53.612;-2.416;2022-09-03T01:35:46;17.10;99.90
15178;DHT22;7689;53.612;-2.416;2022-09-03T01:46:41;16.90;99.90
15178;DHT22;7689;53.612;-2.416;2022-09-03T01:52:05;16.90;99.90
15178;DHT22;7689;53.612;-2.416;2022-09-03T01:57:37;16.80;99.90
15178;DHT22;7689;53.612;-2.416;2022-09-03T02:00:11;16.90;99.90
15178;DHT22;7689;53.612;-2.416;2022-09-03T02:02:43;16.80;99.90
15178;DHT22;7689;53.612;-2.416;2022-09-03T02:05:15;16.80;99.90
15178;DHT22;7689;53.612;-2.416;2022-09-03T02:07:48;16.80;99.90
15178;DHT22;7689;53.612;-2.416;2022-09-03T02:10:17;16.80;99.90
15178;DHT22;7689;53.612;-2.416;2022-09-03T02:12:47;16.80;99.90
15178;DHT22;7689;53.612;-2.416;2022-09-03T02:15:17;16.80;99.90
15178;DHT22;7689;53.612;-2.416;2022-09-03T02:17:44;16.90;99.90
15178;DHT22;7689;53.612;-2.416;2022-09-03T02:20:15;16.90;99.90
15178;DHT22;7689;53.612;-2.416;2022-09-03T02:22:43;16.90;99.90
15178;DHT22;7689;53.612;-2.416;2022-09-03T02:25:09;16.90;99.90
15178;DHT22;7689;53.612;-2.416;2022-09-03T02:27:39;16.90;99.90
15178;DHT22;7689;53.612;-2.416;2022-09-03T02:30:06;16.90;99.90
15178;DHT22;7689;53.612;-2.416;2022-09-03T02:32:31;16.90;99.90
15178;DHT22;7689;53.612;-2.416;2022-09-03T02:34:57;17.00;99.90
15178;DHT22;7689;53.612;-2.416;2022-09-03T02:37:23;17.00;99.90
15178;DHT22;7689;53.612;-2.416;2022-09-03T02:39:49;17.00;99.90
15178;DHT22;7689;53.612;-2.416;2022-09-03T02:42:19;17.00;99.90
15178;DHT22;7689;53.612;-2.416;2022-09-03T02:44:54;17.00;99.90
15178;DHT22;7689;53.612;-2.416;2022-09-03T02:47:22;17.00;99.90
15178;DHT22;7689;53.612;-2.416;2022-09-03T02:49:53;17.00;99.90
15178;DHT22;7689;53.612;-2.416;2022-09-03T02:52:18;17.00;99.90
15178;DHT22;7689;53.612;-2.416;2022-09-03T02:54:44;17.00;99.90
15178;DHT22;7689;53.612;-2.416;2022-09-03T02:57:13;17.00;99.90
15178;DHT22;7689;53.612;-2.416;2022-09-03T02:59:39;17.00;99.90
15178;DHT22;7689;53.612;-2.416;2022-09-03T03:02:06;17.10;99.90
15178;DHT22;7689;53.612;-2.416;2022-09-03T03:04:32;17.10;99.90
15178;DHT22;7689;53.612;-2.416;2022-09-03T03:06:58;17.10;99.90
15178;DHT22;7689;53.612;-2.416;2022-09-03T03:09:24;17.10;99.90
15178;DHT22;7689;53.612;-2.416;2022-09-03T03:11:49;17.10;99.90
15178;DHT22;7689;53.612;-2.416;2022-09-03T03:14:16;17.10;99.90
15178;DHT22;7689;53.612;-2.416;2022-09-03T03:16:43;17.20;99.90
15178;DHT22;7689;53.612;-2.416;2022-09-03T03:19:09;17.20;99.90
15178;DHT22;7689;53.612;-2.416;2022-09-03T03:21:35;17.20;99.90
15178;DHT22;7689;53.612;-2.416;2022-09-03T03:24:01;17.20;99.90
15178;DHT22;7689;53.612;-2.416;2022-09-03T03:26:27;17.20;99.90
15178;DHT22;7689;53.612;-2.416;2022-09-03T03:28:58;17.20;99.90
15178;DHT22;7689;53.612;-2.416;2022-09-03T03:31:25;17.20;99.90
15178;DHT22;7689;53.612;-2.416;2022-09-03T03:33:54;17.20;99.90
15178;DHT22;7689;53.612;-2.416;2022-09-03T03:36:21;17.20;99.90
15178;DHT22;7689;53.612;-2.416;2022-09-03T03:38:47;17.20;99.90
15178;DHT22;7689;53.612;-2.416;2022-09-03T03:41:18;17.20;99.90
15178;DHT22;7689;53.612;-2.416;2022-09-03T03:43:46;17.20;99.90
15178;DHT22;7689;53.612;-2.416;2022-09-03T03:46:12;17.10;99.90
15178;DHT22;7689;53.612;-2.416;2022-09-03T03:48:39;17.10;99.90
15178;DHT22;7689;53.612;-2.416;2022-09-03T03:51:08;17.10;99.90
15178;DHT22;7689;53.612;-2.416;2022-09-03T03:53:35;17.10;99.90
15178;DHT22;7689;53.612;-2.416;2022-09-03T03:56:03;17.10;99.90
15178;DHT22;7689;53.612;-2.416;2022-09-03T03:58:30;17.10;99.90
15178;DHT22;7689;53.612;-2.416;2022-09-03T04:01:04;17.10;99.90
15178;DHT22;7689;53.612;-2.416;2022-09-03T04:03:30;17.10;99.90
15178;DHT22;7689;53.612;-2.416;2022-09-03T04:05:57;17.10;99.90
15178;DHT22;7689;53.612;-2.416;2022-09-03T04:08:24;17.10;99.90
15178;DHT22;7689;53.612;-2.416;2022-09-03T04:10:50;17.10;99.90
15178;DHT22;7689;53.612;-2.416;2022-09-03T04:13:16;17.10;99.90
15178;DHT22;7689;53.612;-2.416;2022-09-03T04:15:41;17.10;99.90
15178;DHT22;7689;53.612;-2.416;2022-09-03T04:18:07;17.10;99.90
15178;DHT22;7689;53.612;-2.416;2022-09-03T04:20:35;17.00;99.90
15178;DHT22;7689;53.612;-2.416;2022-09-03T04:23:02;17.00;99.90
15178;DHT22;7689;53.612;-2.416;2022-09-03T04:25:28;17.00;99.90
15178;DHT22;7689;53.612;-2.416;2022-09-03T04:27:54;17.10;99.90
15178;DHT22;7689;53.612;-2.416;2022-09-03T04:30:19;17.10;99.90
15178;DHT22;7689;53.612;-2.416;2022-09-03T04:32:48;17.10;99.90
15178;DHT22;7689;53.612;-2.416;2022-09-03T04:35:25;17.10;99.90
15178;DHT22;7689;53.612;-2.416;2022-09-03T04:37:51;17.10;99.90
15178;DHT22;7689;53.612;-2.416;2022-09-03T04:40:19;17.10;99.90
15178;DHT22;7689;53.612;-2.416;2022-09-03T04:42:48;17.00;99.90
15178;DHT22;7689;53.612;-2.416;2022-09-03T04:45:14;17.00;99.90
15178;DHT22;7689;53.612;-2.416;2022-09-03T04:47:44;17.00;99.90
15178;DHT22;7689;53.612;-2.416;2022-09-03T04:50:11;17.00;99.90
15178;DHT22;7689;53.612;-2.416;2022-09-03T04:52:37;17.00;99.90
15178;DHT22;7689;53.612;-2.416;2022-09-03T04:55:03;17.00;99.90
15178;DHT22;7689;53.612;-2.416;2022-09-03T04:57:30;17.00;99.90
15178;DHT22;7689;53.612;-2.416;2022-09-03T04:59:59;17.00;99.90
15178;DHT22;7689;53.612;-2.416;2022-09-03T05:02:25;16.90;99.90
15178;DHT22;7689;53.612;-2.416;2022-09-03T05:04:51;17.00;99.90
15178;DHT22;7689;53.612;-2.416;2022-09-03T05:07:17;17.00;99.90
15178;DHT22;7689;53.612;-2.416;2022-09-03T05:09:44;16.90;99.90
15178;DHT22;7689;53.612;-2.416;2022-09-03T05:12:10;16.90;99.90
15178;DHT22;7689;53.612;-2.416;2022-09-03T05:14:36;16.90;99.90
15178;DHT22;7689;53.612;-2.416;2022-09-03T05:17:01;16.90;99.90
15178;DHT22;7689;53.612;-2.416;2022-09-03T05:19:27;16.90;99.90
15178;DHT22;7689;53.612;-2.416;2022-09-03T05:21:53;16.90;99.90
15178;DHT22;7689;53.612;-2.416;2022-09-03T05:24:18;16.90;99.90
15178;DHT22;7689;53.612;-2.416;2022-09-03T05:26:44;16.90;99.90
15178;DHT22;7689;53.612;-2.416;2022-09-03T05:29:10;16.90;99.90
15178;DHT22;7689;53.612;-2.416;2022-09-03T05:31:37;16.80;99.90
15178;DHT22;7689;53.612;-2.416;2022-09-03T05:34:04;16.70;99.90
15178;DHT22;7689;53.612;-2.416;2022-09-03T05:36:32;16.80;99.90
15178;DHT22;7689;53.612;-2.416;2022-09-03T05:38:59;16.80;99.90
15178;DHT22;7689;53.612;-2.416;2022-09-03T05:41:26;16.80;99.90
15178;DHT22;7689;53.612;-2.416;2022-09-03T05:43:53;16.80;99.90
15178;DHT22;7689;53.612;-2.416;2022-09-03T05:46:30;16.80;99.90
15178;DHT22;7689;53.612;-2.416;2022-09-03T05:48:57;16.80;99.90
15178;DHT22;7689;53.612;-2.416;2022-09-03T05:51:24;16.80;99.90
15178;DHT22;7689;53.612;-2.416;2022-09-03T05:53:50;16.80;99.90
15178;DHT22;7689;53.612;-2.416;2022-09-03T05:56:19;16.80;99.90
15178;DHT22;7689;53.612;-2.416;2022-09-03T05:58:53;16.80;99.90
15178;DHT22;7689;53.612;-2.416;2022-09-03T06:01:21;16.80;99.90
15178;DHT22;7689;53.612;-2.416;2022-09-03T06:03:59;16.80;99.90
15178;DHT22;7689;53.612;-2.416;2022-09-03T06:06:26;16.80;99.90
15178;DHT22;7689;53.612;-2.416;2022-09-03T06:08:57;16.80;99.90
15178;DHT22;7689;53.612;-2.416;2022-09-03T06:11:24;16.80;99.90
15178;DHT22;7689;53.612;-2.416;2022-09-03T06:13:53;16.90;99.90
15178;DHT22;7689;53.612;-2.416;2022-09-03T06:16:19;16.90;99.90
15178;DHT22;7689;53.612;-2.416;2022-09-03T06:18:46;16.90;99.90
15178;DHT22;7689;53.612;-2.416;2022-09-03T06:21:12;16.90;99.90
15178;DHT22;7689;53.612;-2.416;2022-09-03T06:23:39;16.90;99.90
15178;DHT22;7689;53.612;-2.416;2022-09-03T06:26:10;16.90;99.90
15178;DHT22;7689;53.612;-2.416;2022-09-03T06:28:40;16.90;99.90
15178;DHT22;7689;53.612;-2.416;2022-09-03T06:31:09;17.00;99.90
15178;DHT22;7689;53.612;-2.416;2022-09-03T06:33:36;17.10;99.90
15178;DHT22;7689;53.612;-2.416;2022-09-03T06:36:04;17.00;99.90
15178;DHT22;7689;53.612;-2.416;2022-09-03T06:38:31;17.10;99.90
15178;DHT22;7689;53.612;-2.416;2022-09-03T06:41:01;17.10;99.90
15178;DHT22;7689;53.612;-2.416;2022-09-03T06:43:29;17.10;99.90
15178;DHT22;7689;53.612;-2.416;2022-09-03T06:45:57;17.10;99.90
15178;DHT22;7689;53.612;-2.416;2022-09-03T06:48:24;17.10;99.90
15178;DHT22;7689;53.612;-2.416;2022-09-03T06:53:22;17.10;99.90
15178;DHT22;7689;53.612;-2.416;2022-09-03T06:55:59;17.10;99.90
15178;DHT22;7689;53.612;-2.416;2022-09-03T06:58:28;17.20;99.90
15178;DHT22;7689;53.612;-2.416;2022-09-03T07:01:01;17.20;99.90
15178;DHT22;7689;53.612;-2.416;2022-09-03T07:03:27;17.20;99.90
15178;DHT22;7689;53.612;-2.416;2022-09-03T07:05:52;17.30;99.90
15178;DHT22;7689;53.612;-2.416;2022-09-03T07:08:18;17.40;99.90
15178;DHT22;7689;53.612;-2.416;2022-09-03T07:10:46;17.40;99.90
15178;DHT22;7689;53.612;-2.416;2022-09-03T07:13:12;17.50;99.90
15178;DHT22;7689;53.612;-2.416;2022-09-03T07:15:38;17.60;99.90
15178;DHT22;7689;53.612;-2.416;2022-09-03T07:18:05;17.70;99.90
15178;DHT22;7689;53.612;-2.416;2022-09-03T07:20:31;17.70;99.90
15178;DHT22;7689;53.612;-2.416;2022-09-03T07:22:56;17.90;99.90
15178;DHT22;7689;53.612;-2.416;2022-09-03T07:25:23;17.90;99.90
15178;DHT22;7689;53.612;-2.416;2022-09-03T07:27:50;17.90;99.90
15178;DHT22;7689;53.612;-2.416;2022-09-03T07:30:16;18.00;99.90
15178;DHT22;7689;53.612;-2.416;2022-09-03T07:32:47;18.10;99.90
15178;DHT22;7689;53.612;-2.416;2022-09-03T07:35:16;18.20;99.90
15178;DHT22;7689;53.612;-2.416;2022-09-03T07:37:43;18.20;99.90
15178;DHT22;7689;53.612;-2.416;2022-09-03T07:40:09;18.30;99.90
15178;DHT22;7689;53.612;-2.416;2022-09-03T07:42:35;18.30;99.90
15178;DHT22;7689;53.612;-2.416;2022-09-03T07:45:05;18.30;99.90
15178;DHT22;7689;53.612;-2.416;2022-09-03T07:47:34;18.40;99.90
15178;DHT22;7689;53.612;-2.416;2022-09-03T07:50:00;18.60;99.90
15178;DHT22;7689;53.612;-2.416;2022-09-03T07:52:26;18.70;99.90
15178;DHT22;7689;53.612;-2.416;2022-09-03T07:54:52;18.80;99.90
15178;DHT22;7689;53.612;-2.416;2022-09-03T07:57:17;18.70;99.90
15178;DHT22;7689;53.612;-2.416;2022-09-03T07:59:43;18.90;99.90
15178;DHT22;7689;53.612;-2.416;2022-09-03T08:02:09;19.00;99.90
15178;DHT22;7689;53.612;-2.416;2022-09-03T08:04:34;19.00;99.90
15178;DHT22;7689;53.612;-2.416;2022-09-03T08:07:00;19.00;99.90
15178;DHT22;7689;53.612;-2.416;2022-09-03T08:09:26;19.00;99.90
15178;DHT22;7689;53.612;-2.416;2022-09-03T08:11:51;19.10;99.90
15178;DHT22;7689;53.612;-2.416;2022-09-03T08:14:17;19.10;99.90
15178;DHT22;7689;53.612;-2.416;2022-09-03T08:16:44;19.10;99.90
15178;DHT22;7689;53.612;-2.416;2022-09-03T08:19:14;19.10;99.90
15178;DHT22;7689;53.612;-2.416;2022-09-03T08:21:40;19.20;99.90
15178;DHT22;7689;53.612;-2.416;2022-09-03T08:24:06;19.30;99.90
15178;DHT22;7689;53.612;-2.416;2022-09-03T08:26:36;19.50;99.90
15178;DHT22;7689;53.612;-2.416;2022-09-03T08:29:03;19.70;99.90
15178;DHT22;7689;53.612;-2.416;2022-09-03T08:31:29;19.80;99.90
15178;DHT22;7689;53.612;-2.416;2022-09-03T08:33:57;19.90;99.90
15178;DHT22;7689;53.612;-2.416;2022-09-03T08:36:28;20.10;99.90
15178;DHT22;7689;53.612;-2.416;2022-09-03T08:38:55;20.10;99.90
15178;DHT22;7689;53.612;-2.416;2022-09-03T08:44:54;20.30;99.90
15178;DHT22;7689;53.612;-2.416;2022-09-03T08:47:22;20.40;99.90
15178;DHT22;7689;53.612;-2.416;2022-09-03T08:57:48;20.50;99.90
15178;DHT22;7689;53.612;-2.416;2022-09-03T09:00:16;20.40;99.90
15178;DHT22;7689;53.612;-2.416;2022-09-03T09:03:05;20.40;99.90
15178;DHT22;7689;53.612;-2.416;2022-09-03T09:11:39;20.50;99.90
15178;DHT22;7689;53.612;-2.416;2022-09-03T09:14:28;20.40;99.90
15178;DHT22;7689;53.612;-2.416;2022-09-03T09:21:59;20.10;99.90
15178;DHT22;7689;53.612;-2.416;2022-09-03T09:24:34;20.00;99.90
15178;DHT22;7689;53.612;-2.416;2022-09-03T09:27:04;20.00;99.90
15178;DHT22;7689;53.612;-2.416;2022-09-03T09:29:33;20.00;99.90
15178;DHT22;7689;53.612;-2.416;2022-09-03T09:31:59;19.90;99.90
15178;DHT22;7689;53.612;-2.416;2022-09-03T09:34:25;19.90;99.90
15178;DHT22;7689;53.612;-2.416;2022-09-03T09:36:54;19.90;99.90
15178;DHT22;7689;53.612;-2.416;2022-09-03T09:39:21;19.90;99.90
15178;DHT22;7689;53.612;-2.416;2022-09-03T09:42:01;20.00;99.90
15178;DHT22;7689;53.612;-2.416;2022-09-03T09:44:32;20.00;99.90
15178;DHT22;7689;53.612;-2.416;2022-09-03T09:47:11;20.00;99.90
15178;DHT22;7689;53.612;-2.416;2022-09-03T09:52:15;19.90;99.90
15178;DHT22;7689;53.612;-2.416;2022-09-03T09:54:43;19.80;99.90
15178;DHT22;7689;53.612;-2.416;2022-09-03T09:57:15;19.90;99.90
15178;DHT22;7689;53.612;-2.416;2022-09-03T09:59:44;19.90;99.90
15178;DHT22;7689;53.612;-2.416;2022-09-03T10:04:39;19.90;99.90
15178;DHT22;7689;53.612;-2.416;2022-09-03T10:07:29;20.00;99.90
15178;DHT22;7689;53.612;-2.416;2022-09-03T10:10:27;20.00;99.90
15178;DHT22;7689;53.612;-2.416;2022-09-03T10:13:15;20.20;99.90
15178;DHT22;7689;53.612;-2.416;2022-09-03T10:16:01;20.20;99.90
15178;DHT22;7689;53.612;-2.416;2022-09-03T10:18:42;20.40;99.90
15178;DHT22;7689;53.612;-2.416;2022-09-03T10:21:16;20.50;99.90
15178;DHT22;7689;53.612;-2.416;2022-09-03T10:23:58;20.50;99.90
15178;DHT22;7689;53.612;-2.416;2022-09-03T10:26:24;20.70;99.90
15178;DHT22;7689;53.612;-2.416;2022-09-03T10:29:00;20.80;99.90
15178;DHT22;7689;53.612;-2.416;2022-09-03T10:31:30;20.90;99.90
15178;DHT22;7689;53.612;-2.416;2022-09-03T10:48:14;21.10;99.90
15178;DHT22;7689;53.612;-2.416;2022-09-03T10:50:47;21.10;99.90
15178;DHT22;7689;53.612;-2.416;2022-09-03T10:56:04;20.90;99.90
15178;DHT22;7689;53.612;-2.416;2022-09-03T10:59:03;21.00;99.90
15178;DHT22;7689;53.612;-2.416;2022-09-03T11:07:08;21.10;99.90
15178;DHT22;7689;53.612;-2.416;2022-09-03T11:12:27;21.00;99.90
15178;DHT22;7689;53.612;-2.416;2022-09-03T11:20:27;20.90;99.90
15178;DHT22;7689;53.612;-2.416;2022-09-03T11:22:59;20.90;99.90
15178;DHT22;7689;53.612;-2.416;2022-09-03T11:25:35;20.90;99.90
15178;DHT22;7689;53.612;-2.416;2022-09-03T11:28:43;21.00;99.90
15178;DHT22;7689;53.612;-2.416;2022-09-03T11:34:30;21.10;99.90
15178;DHT22;7689;53.612;-2.416;2022-09-03T11:37:20;21.10;99.90
15178;DHT22;7689;53.612;-2.416;2022-09-03T11:40:05;21.10;99.90
15178;DHT22;7689;53.612;-2.416;2022-09-03T11:42:40;21.10;99.90
15178;DHT22;7689;53.612;-2.416;2022-09-03T11:47:54;21.00;99.90
15178;DHT22;7689;53.612;-2.416;2022-09-03T11:53:38;20.80;99.90
15178;DHT22;7689;53.612;-2.416;2022-09-03T11:58:33;20.80;99.90
15178;DHT22;7689;53.612;-2.416;2022-09-03T12:01:01;21.00;99.90
15178;DHT22;7689;53.612;-2.416;2022-09-03T12:03:41;21.10;99.90
15178;DHT22;7689;53.612;-2.416;2022-09-03T12:22:17;22.30;99.90
15178;DHT22;7689;53.612;-2.416;2022-09-03T12:24:43;22.20;99.90
15178;DHT22;7689;53.612;-2.416;2022-09-03T12:27:24;22.10;99.90
15178;DHT22;7689;53.612;-2.416;2022-09-03T12:32:33;22.20;99.90
15178;DHT22;7689;53.612;-2.416;2022-09-03T12:35:22;22.30;99.90
15178;DHT22;7689;53.612;-2.416;2022-09-03T12:37:51;22.30;99.90
15178;DHT22;7689;53.612;-2.416;2022-09-03T12:40:22;22.20;99.90
15178;DHT22;7689;53.612;-2.416;2022-09-03T12:42:48;22.10;99.90
15178;DHT22;7689;53.612;-2.416;2022-09-03T12:45:21;22.10;99.90
15178;DHT22;7689;53.612;-2.416;2022-09-03T12:47:47;22.00;99.90
15178;DHT22;7689;53.612;-2.416;2022-09-03T12:50:14;21.90;99.90
15178;DHT22;7689;53.612;-2.416;2022-09-03T12:55:42;22.30;99.90
15178;DHT22;7689;53.612;-2.416;2022-09-03T12:58:11;22.30;99.90
15178;DHT22;7689;53.612;-2.416;2022-09-03T13:00:42;22.20;99.90
15178;DHT22;7689;53.612;-2.416;2022-09-03T13:05:49;22.10;99.90
15178;DHT22;7689;53.612;-2.416;2022-09-03T13:08:28;22.30;99.90
15178;DHT22;7689;53.612;-2.416;2022-09-03T13:10:57;22.20;99.90
15178;DHT22;7689;53.612;-2.416;2022-09-03T13:13:35;22.10;99.90
15178;DHT22;7689;53.612;-2.416;2022-09-03T13:16:20;22.10;99.90
15178;DHT22;7689;53.612;-2.416;2022-09-03T13:19:04;22.10;99.90
15178;DHT22;7689;53.612;-2.416;2022-09-03T13:24:27;22.10;99.90
15178;DHT22;7689;53.612;-2.416;2022-09-03T13:34:59;21.70;99.90
15178;DHT22;7689;53.612;-2.416;2022-09-03T13:37:44;21.80;99.90
15178;DHT22;7689;53.612;-2.416;2022-09-03T13:41:28;21.90;99.90
15178;DHT22;7689;53.612;-2.416;2022-09-03T13:43:33;22.10;99.90
15178;DHT22;7689;53.612;-2.416;2022-09-03T13:46:23;22.20;99.90
15178;DHT22;7689;53.612;-2.416;2022-09-03T13:48:58;22.40;99.90
15178;DHT22;7689;53.612;-2.416;2022-09-03T13:51:58;22.50;99.90
15178;DHT22;7689;53.612;-2.416;2022-09-03T13:54:30;22.50;99.90
15178;DHT22;7689;53.612;-2.416;2022-09-03T13:57:03;22.50;99.90
15178;DHT22;7689;53.612;-2.416;2022-09-03T13:59:52;22.40;99.90
15178;DHT22;7689;53.612;-2.416;2022-09-03T14:05:12;22.60;99.90
15178;DHT22;7689;53.612;-2.416;2022-09-03T14:10:33;22.90;99.90
15178;DHT22;7689;53.612;-2.416;2022-09-03T14:13:09;22.90;99.90
15178;DHT22;7689;53.612;-2.416;2022-09-03T14:15:55;22.90;99.90
15178;DHT22;7689;53.612;-2.416;2022-09-03T14:24:23;22.80;99.90
15178;DHT22;7689;53.612;-2.416;2022-09-03T14:27:00;22.70;99.90
15178;DHT22;7689;53.612;-2.416;2022-09-03T14:29:31;22.60;99.90
15178;DHT22;7689;53.612;-2.416;2022-09-03T14:32:22;22.60;99.90
15178;DHT22;7689;53.612;-2.416;2022-09-03T14:46:17;22.40;99.90
15178;DHT22;7689;53.612;-2.416;2022-09-03T14:52:06;22.20;99.90
15178;DHT22;7689;53.612;-2.416;2022-09-03T15:01:03;22.00;99.90
15178;DHT22;7689;53.612;-2.416;2022-09-03T15:18:01;21.70;99.90
15178;DHT22;7689;53.612;-2.416;2022-09-03T15:23:18;21.60;99.90
15178;DHT22;7689;53.612;-2.416;2022-09-03T15:36:40;21.80;99.90
15178;DHT22;7689;53.612;-2.416;2022-09-03T15:39:16;21.90;99.90
15178;DHT22;7689;53.612;-2.416;2022-09-03T15:42:05;22.00;99.90
15178;DHT22;7689;53.612;-2.416;2022-09-03T15:44:45;21.90;99.90
15178;DHT22;7689;53.612;-2.416;2022-09-03T15:50:01;21.90;99.90
15178;DHT22;7689;53.612;-2.416;2022-09-03T15:57:32;21.90;99.90
15178;DHT22;7689;53.612;-2.416;2022-09-03T16:05:43;21.70;99.90
15178;DHT22;7689;53.612;-2.416;2022-09-03T16:08:18;21.70;99.90
15178;DHT22;7689;53.612;-2.416;2022-09-03T16:16:27;21.70;99.90
15178;DHT22;7689;53.612;-2.416;2022-09-03T16:22:29;21.50;99.90
15178;DHT22;7689;53.612;-2.416;2022-09-03T16:25:06;21.60;99.90
15178;DHT22;7689;53.612;-2.416;2022-09-03T16:27:56;21.50;99.90
15178;DHT22;7689;53.612;-2.416;2022-09-03T16:33:39;21.30;99.90
15178;DHT22;7689;53.612;-2.416;2022-09-03T16:45:47;21.20;99.90
15178;DHT22;7689;53.612;-2.416;2022-09-03T16:53:28;21.00;99.90
15178;DHT22;7689;53.612;-2.416;2022-09-03T16:58:47;21.00;99.90
15178;DHT22;7689;53.612;-2.416;2022-09-03T17:01:41;21.00;99.90
15178;DHT22;7689;53.612;-2.416;2022-09-03T17:04:34;20.90;99.90
15178;DHT22;7689;53.612;-2.416;2022-09-03T17:13:25;20.90;99.90
15178;DHT22;7689;53.612;-2.416;2022-09-03T17:28:55;20.90;99.90
15178;DHT22;7689;53.612;-2.416;2022-09-03T17:46:51;20.70;99.90
15178;DHT22;7689;53.612;-2.416;2022-09-03T17:49:40;21.50;99.90
15178;DHT22;7689;53.612;-2.416;2022-09-03T17:54:47;20.60;99.90
15178;DHT22;7689;53.612;-2.416;2022-09-03T18:00:22;20.50;99.90
15178;DHT22;7689;53.612;-2.416;2022-09-03T18:02:54;20.50;99.90
15178;DHT22;7689;53.612;-2.416;2022-09-03T18:05:25;20.50;99.90
15178;DHT22;7689;53.612;-2.416;2022-09-03T18:15:58;20.40;99.90
15178;DHT22;7689;53.612;-2.416;2022-09-03T18:18:27;20.50;99.90
15178;DHT22;7689;53.612;-2.416;2022-09-03T18:20:56;20.40;99.90
15178;DHT22;7689;53.612;-2.416;2022-09-03T18:26:29;20.40;99.90
15178;DHT22;7689;53.612;-2.416;2022-09-03T18:29:38;20.30;99.90
15178;DHT22;7689;53.612;-2.416;2022-09-03T18:32:21;20.20;99.90
15178;DHT22;7689;53.612;-2.416;2022-09-03T18:35:07;20.10;99.90
15178;DHT22;7689;53.612;-2.416;2022-09-03T18:37:52;20.00;99.90
15178;DHT22;7689;53.612;-2.416;2022-09-03T18:40:46;19.90;99.90
15178;DHT22;7689;53.612;-2.416;2022-09-03T18:49:46;19.80;99.90
15178;DHT22;7689;53.612;-2.416;2022-09-03T18:52:55;19.80;99.90
15178;DHT22;7689;53.612;-2.416;2022-09-03T19:01:57;19.50;99.90
15178;DHT22;7689;53.612;-2.416;2022-09-03T19:05:16;19.60;99.90
15178;DHT22;7689;53.612;-2.416;2022-09-03T19:08:19;19.50;99.90
15178;DHT22;7689;53.612;-2.416;2022-09-03T19:11:18;19.50;99.90
15178;DHT22;7689;53.612;-2.416;2022-09-03T19:14:14;19.40;99.90
15178;DHT22;7689;53.612;-2.416;2022-09-03T19:20:28;19.40;99.90
15178;DHT22;7689;53.612;-2.416;2022-09-03T19:23:13;19.30;99.90
15178;DHT22;7689;53.612;-2.416;2022-09-03T19:26:17;19.40;99.90
15178;DHT22;7689;53.612;-2.416;2022-09-03T19:29:22;19.30;99.90
15178;DHT22;7689;53.612;-2.416;2022-09-03T19:32:18;19.30;99.90
15178;DHT22;7689;53.612;-2.416;2022-09-03T19:35:17;19.30;99.90
15178;DHT22;7689;53.612;-2.416;2022-09-03T19:38:16;19.20;99.90
15178;DHT22;7689;53.612;-2.416;2022-09-03T19:41:16;19.20;99.90
15178;DHT22;7689;53.612;-2.416;2022-09-03T19:46:56;19.20;99.90
15178;DHT22;7689;53.612;-2.416;2022-09-03T19:55:51;19.20;99.90
15178;DHT22;7689;53.612;-2.416;2022-09-03T19:58:48;19.20;99.90
15178;DHT22;7689;53.612;-2.416;2022-09-03T20:01:35;19.20;99.90
15178;DHT22;7689;53.612;-2.416;2022-09-03T20:04:30;19.20;99.90
15178;DHT22;7689;53.612;-2.416;2022-09-03T20:07:14;19.20;99.90
15178;DHT22;7689;53.612;-2.416;2022-09-03T20:10:03;19.20;99.90
15178;DHT22;7689;53.612;-2.416;2022-09-03T20:13:01;19.10;99.90
15178;DHT22;7689;53.612;-2.416;2022-09-03T20:29:57;19.10;99.90
15178;DHT22;7689;53.612;-2.416;2022-09-03T20:32:57;19.10;99.90
15178;DHT22;7689;53.612;-2.416;2022-09-03T20:38:31;19.10;99.90
15178;DHT22;7689;53.612;-2.416;2022-09-03T20:41:11;19.00;99.90
15178;DHT22;7689;53.612;-2.416;2022-09-03T20:43:43;18.50;99.90
15178;DHT22;7689;53.612;-2.416;2022-09-03T20:46:38;19.00;99.90
15178;DHT22;7689;53.612;-2.416;2022-09-03T20:52:11;19.00;99.90
15178;DHT22;7689;53.612;-2.416;2022-09-03T20:54:47;18.90;99.90
15178;DHT22;7689;53.612;-2.416;2022-09-03T21:08:43;18.90;99.90
15178;DHT22;7689;53.612;-2.416;2022-09-03T21:11:42;18.80;99.90
15178;DHT22;7689;53.612;-2.416;2022-09-03T21:25:00;18.70;99.90
15178;DHT22;7689;53.612;-2.416;2022-09-03T21:27:44;18.70;99.90
15178;DHT22;7689;53.612;-2.416;2022-09-03T21:30:15;18.70;99.90
15178;DHT22;7689;53.612;-2.416;2022-09-03T21:33:07;18.70;99.90
15178;DHT22;7689;53.612;-2.416;2022-09-03T21:35:43;18.60;99.90
15178;DHT22;7689;53.612;-2.416;2022-09-03T21:38:17;18.60;99.90
15178;DHT22;7689;53.612;-2.416;2022-09-03T21:41:09;18.60;99.90
15178;DHT22;7689;53.612;-2.416;2022-09-03T21:46:56;18.50;99.90
15178;DHT22;7689;53.612;-2.416;2022-09-03T21:49:08;18.50;99.90
15178;DHT22;7689;53.612;-2.416;2022-09-03T21:52:00;18.50;99.90
15178;DHT22;7689;53.612;-2.416;2022-09-03T21:54:29;18.40;99.90
15178;DHT22;7689;53.612;-2.416;2022-09-03T22:02:33;18.30;99.90
15178;DHT22;7689;53.612;-2.416;2022-09-03T22:04:59;18.30;99.90
15178;DHT22;7689;53.612;-2.416;2022-09-03T22:10:36;18.30;99.90
15178;DHT22;7689;53.612;-2.416;2022-09-03T22:15:50;18.30;99.90
15178;DHT22;7689;53.612;-2.416;2022-09-03T22:18:21;18.20;99.90
15178;DHT22;7689;53.612;-2.416;2022-09-03T22:21:09;18.20;99.90
15178;DHT22;7689;53.612;-2.416;2022-09-03T22:26:27;18.10;99.90
15178;DHT22;7689;53.612;-2.416;2022-09-03T22:32:08;18.00;99.90
15178;DHT22;7689;53.612;-2.416;2022-09-03T22:35:31;18.10;99.90
15178;DHT22;7689;53.612;-2.416;2022-09-03T22:45:35;18.00;99.90
15178;DHT22;7689;53.612;-2.416;2022-09-03T22:50:59;18.00;99.90
15178;DHT22;7689;53.612;-2.416;2022-09-03T22:54:33;17.90;99.90
15178;DHT22;7689;53.612;-2.416;2022-09-03T22:56:35;17.90;99.90
15178;DHT22;7689;53.612;-2.416;2022-09-03T22:59:24;17.90;99.90
15178;DHT22;7689;53.612;-2.416;2022-09-03T23:02:05;17.80;99.90
15178;DHT22;7689;53.612;-2.416;2022-09-03T23:10:25;17.80;99.90
15178;DHT22;7689;53.612;-2.416;2022-09-03T23:13:14;17.70;99.90
15178;DHT22;7689;53.612;-2.416;2022-09-03T23:15:41;17.70;99.90
15178;DHT22;7689;53.612;-2.416;2022-09-03T23:18:12;17.60;99.90
15178;DHT22;7689;53.612;-2.416;2022-09-03T23:23:33;17.40;99.90
15178;DHT22;7689;53.612;-2.416;2022-09-03T23:26:14;17.40;99.90